Time;durP1;ratioP1;P1;durP2;ratioP2;P2;SDS_P1;SDS_P2;PMS_P1;PMS_P2;Temp;Humidity;BMP_temperature;BMP_pressure;BME280_temperature;BME280_humidity;BME280_pressure;Samples;Min_cycle;Max_cycle;Signal;HPM_P1;HPM_P2
2021/12/11 00:00:19;;;;;;;186.23;86.63;;;2.10;99.90;;;;;;5065647;28;20223;-72
2021/12/11 00:03:13;;;;;;;167.00;83.77;;;2.20;99.90;;;;;;5073913;28;20223;-72
2021/12/11 00:06:06;;;;;;;182.67;88.57;;;2.20;99.90;;;;;;5065003;28;20219;-72
2021/12/11 00:08:59;;;;;;;193.67;86.23;;;2.20;99.90;;;;;;5045702;28;20227;-73
2021/12/11 00:11:51;;;;;;;203.50;93.10;;;2.00;99.90;;;;;;5061620;28;20228;-72
2021/12/11 00:14:43;;;;;;;206.40;98.40;;;2.10;99.90;;;;;;5062246;28;20231;-71
2021/12/11 00:17:35;;;;;;;199.37;87.70;;;2.10;99.90;;;;;;5054222;28;20723;-71
2021/12/11 00:20:27;;;;;;;211.33;92.50;;;2.30;99.90;;;;;;5078784;28;21073;-72
2021/12/11 00:23:20;;;;;;;181.40;89.43;;;2.30;99.90;;;;;;5063929;28;20231;-72
2021/12/11 00:26:12;;;;;;;177.60;87.50;;;2.30;99.90;;;;;;5064251;28;20228;-71
2021/12/11 00:29:04;;;;;;;178.13;89.00;;;2.10;99.90;;;;;;5071220;28;20217;-72
2021/12/11 00:31:57;;;;;;;217.87;92.10;;;2.20;99.90;;;;;;5057079;28;20216;-71
2021/12/11 00:34:54;;;;;;;178.47;86.47;;;2.20;99.90;;;;;;5064040;28;20565;-72
2021/12/11 00:37:43;;;;;;;194.50;90.23;;;2.20;99.90;;;;;;5064285;28;20727;-73
2021/12/11 00:40:32;;;;;;;190.73;88.50;;;2.10;99.90;;;;;;5065237;28;20223;-71
2021/12/11 00:43:27;;;;;;;184.63;85.43;;;2.20;99.90;;;;;;5064022;28;20216;-72
2021/12/11 00:46:22;;;;;;;194.73;86.43;;;2.20;99.90;;;;;;5062944;28;20231;-72
2021/12/11 00:49:13;;;;;;;182.27;85.70;;;2.20;99.90;;;;;;5064313;28;20251;-73
2021/12/11 00:52:04;;;;;;;193.37;85.70;;;2.20;99.90;;;;;;5066017;28;20664;-71
2021/12/11 00:54:53;;;;;;;232.03;82.67;;;2.00;99.90;;;;;;5070263;28;20255;-71
2021/12/11 00:57:45;;;;;;;276.83;83.90;;;1.90;99.90;;;;;;5067071;28;20734;-71
2021/12/11 01:00:40;;;;;;;166.37;83.23;;;2.00;99.90;;;;;;5059988;28;20985;-71
2021/12/11 01:03:34;;;;;;;197.63;82.57;;;2.10;99.90;;;;;;5074100;28;20224;-71
2021/12/11 01:06:25;;;;;;;187.73;83.03;;;2.10;99.90;;;;;;5063712;28;20227;-72
2021/12/11 01:09:19;;;;;;;193.47;83.57;;;2.00;99.90;;;;;;5063446;28;20700;-73
2021/12/11 01:12:13;;;;;;;289.57;89.50;;;2.10;99.90;;;;;;5061653;28;20230;-72
2021/12/11 01:15:12;;;;;;;252.27;89.93;;;2.00;99.90;;;;;;5064715;28;20228;-71
2021/12/11 01:18:21;;;;;;;183.70;82.33;;;2.10;99.90;;;;;;5066583;28;20890;-72
2021/12/11 01:21:29;;;;;;;244.07;78.87;;;2.10;99.90;;;;;;5064691;28;20219;-72
2021/12/11 01:24:29;;;;;;;239.40;84.47;;;2.00;99.90;;;;;;5065073;28;20519;-71
2021/12/11 01:27:24;;;;;;;179.47;83.17;;;1.80;99.90;;;;;;5066244;28;20247;-72
2021/12/11 01:30:17;;;;;;;271.77;86.30;;;1.90;99.90;;;;;;5065445;28;20219;-71
2021/12/11 01:33:11;;;;;;;249.93;83.20;;;2.00;99.90;;;;;;5067704;28;20224;-72
2021/12/11 01:36:00;;;;;;;299.97;84.57;;;1.90;99.90;;;;;;5061225;28;20223;-72
2021/12/11 01:38:53;;;;;;;219.30;82.77;;;1.80;99.90;;;;;;5075741;28;20687;-71
2021/12/11 01:41:45;;;;;;;246.13;86.47;;;1.80;99.90;;;;;;5066040;28;20231;-71
2021/12/11 01:44:36;;;;;;;299.17;90.90;;;1.80;99.90;;;;;;5067996;28;20303;-71
2021/12/11 01:47:29;;;;;;;217.90;87.73;;;1.90;99.90;;;;;;5063613;28;20220;-72
2021/12/11 01:50:26;;;;;;;248.57;85.30;;;1.80;99.90;;;;;;5064581;28;20241;-71
2021/12/11 01:53:20;;;;;;;228.10;82.23;;;1.90;99.90;;;;;;5041631;28;20244;-72
2021/12/11 01:56:12;;;;;;;348.03;89.53;;;1.80;99.90;;;;;;5041608;28;20227;-72
2021/12/11 01:59:06;;;;;;;263.77;88.00;;;1.80;99.90;;;;;;5069285;28;20227;-72
2021/12/11 02:02:02;;;;;;;307.80;86.17;;;1.70;99.90;;;;;;5065429;28;20227;-71
2021/12/11 02:04:55;;;;;;;232.53;82.97;;;1.80;99.90;;;;;;5084986;28;20234;-70
2021/12/11 02:07:47;;;;;;;269.97;88.63;;;1.90;99.90;;;;;;5070086;28;20250;-71
2021/12/11 02:10:39;;;;;;;277.40;84.60;;;2.00;99.90;;;;;;5082304;28;20219;-71
2021/12/11 02:13:38;;;;;;;202.03;81.80;;;2.00;99.90;;;;;;5084404;28;20224;-71
2021/12/11 02:16:33;;;;;;;186.27;79.07;;;1.90;99.90;;;;;;5066660;28;20326;-72
2021/12/11 02:19:29;;;;;;;230.70;80.03;;;1.80;99.90;;;;;;5080855;28;20715;-71
2021/12/11 02:22:23;;;;;;;197.77;79.67;;;1.60;99.90;;;;;;5083396;28;20227;-70
2021/12/11 02:25:16;;;;;;;190.57;79.23;;;1.70;99.90;;;;;;5083047;28;20222;-70
2021/12/11 02:28:09;;;;;;;355.10;85.57;;;1.60;99.90;;;;;;5084784;28;20231;-71
2021/12/11 02:31:04;;;;;;;195.43;80.03;;;1.60;99.90;;;;;;5066678;28;20223;-70
2021/12/11 02:33:58;;;;;;;418.30;87.17;;;1.70;99.90;;;;;;5065035;28;20378;-67
2021/12/11 02:36:53;;;;;;;260.20;81.07;;;1.80;99.90;;;;;;5079135;28;20222;-70
2021/12/11 02:39:48;;;;;;;205.93;78.70;;;1.80;99.90;;;;;;5082781;28;20230;-71
2021/12/11 02:42:40;;;;;;;256.70;78.77;;;1.60;99.90;;;;;;5081492;28;20722;-71
2021/12/11 02:45:36;;;;;;;180.10;76.13;;;1.80;99.90;;;;;;5070731;28;20215;-71
2021/12/11 02:48:28;;;;;;;177.73;73.33;;;1.80;99.90;;;;;;5077480;28;20224;-69
2021/12/11 02:51:20;;;;;;;174.23;75.27;;;1.30;99.90;;;;;;5067272;28;20219;-71
2021/12/11 02:54:12;;;;;;;258.50;78.47;;;1.40;99.90;;;;;;5082920;28;20227;-71
2021/12/11 02:57:06;;;;;;;291.30;80.83;;;1.50;99.90;;;;;;5080432;28;20215;-73
2021/12/11 02:59:56;;;;;;;151.40;75.63;;;1.70;99.90;;;;;;5069853;28;20717;-70
2021/12/11 03:02:50;;;;;;;192.50;74.80;;;1.70;99.90;;;;;;5084335;28;20214;-66
2021/12/11 03:05:48;;;;;;;186.93;76.63;;;1.70;99.90;;;;;;5064616;28;20232;-68
2021/12/11 03:08:41;;;;;;;213.67;77.10;;;1.70;99.90;;;;;;5087092;28;20233;-71
2021/12/11 03:11:32;;;;;;;238.93;77.10;;;1.60;99.90;;;;;;5085770;28;20697;-67
2021/12/11 03:14:27;;;;;;;124.17;73.57;;;1.60;99.90;;;;;;5052771;28;20216;-72
2021/12/11 03:17:18;;;;;;;145.13;69.30;;;1.60;99.90;;;;;;5083084;28;20215;-72
2021/12/11 03:20:10;;;;;;;149.17;71.17;;;1.40;99.90;;;;;;5087380;28;20220;-71
2021/12/11 03:23:00;;;;;;;212.10;73.40;;;1.60;99.90;;;;;;5061150;28;20227;-71
2021/12/11 03:25:49;;;;;;;121.30;67.53;;;1.60;99.90;;;;;;5070195;28;20831;-71
2021/12/11 03:28:39;;;;;;;185.23;71.83;;;1.60;99.90;;;;;;5059285;28;21160;-72
2021/12/11 03:31:36;;;;;;;148.73;67.27;;;1.50;99.90;;;;;;5060121;28;20542;-72
2021/12/11 03:34:27;;;;;;;153.33;73.13;;;1.40;99.90;;;;;;5056718;28;20727;-73
2021/12/11 03:37:19;;;;;;;165.37;75.17;;;1.20;99.90;;;;;;5047631;28;20266;-72
2021/12/11 03:40:09;;;;;;;175.20;68.27;;;1.20;99.90;;;;;;5080549;28;20249;-71
2021/12/11 03:43:00;;;;;;;147.33;70.73;;;1.10;99.90;;;;;;5077889;28;20699;-71
2021/12/11 03:45:52;;;;;;;122.17;68.53;;;0.90;99.90;;;;;;5079918;28;20235;-71
2021/12/11 03:48:47;;;;;;;131.47;74.03;;;0.90;99.90;;;;;;5084037;28;20222;-72
2021/12/11 03:51:41;;;;;;;143.13;73.30;;;1.10;99.90;;;;;;5069528;28;20226;-72
2021/12/11 03:54:33;;;;;;;151.13;74.00;;;1.20;99.90;;;;;;5080470;28;20208;-72
2021/12/11 03:57:25;;;;;;;147.43;75.20;;;1.10;99.90;;;;;;5065523;28;20232;-72
2021/12/11 04:00:19;;;;;;;158.37;73.57;;;1.10;99.90;;;;;;5077517;28;20227;-71
2021/12/11 04:03:10;;;;;;;143.97;75.10;;;1.30;99.90;;;;;;5080783;28;20240;-71
2021/12/11 04:06:03;;;;;;;129.37;72.40;;;1.20;99.90;;;;;;5069642;28;20232;-71
2021/12/11 04:08:54;;;;;;;122.90;71.67;;;1.30;99.90;;;;;;5059872;28;20216;-72
2021/12/11 04:11:43;;;;;;;111.93;68.60;;;1.30;99.90;;;;;;5070093;28;20223;-71
2021/12/11 04:14:36;;;;;;;109.37;69.83;;;1.30;99.90;;;;;;5091395;28;20231;-71
2021/12/11 04:17:28;;;;;;;98.87;67.53;;;1.30;99.90;;;;;;5082875;28;20218;-72
2021/12/11 04:20:21;;;;;;;93.33;70.37;;;1.20;99.90;;;;;;5057646;28;20228;-72
2021/12/11 04:23:13;;;;;;;86.67;66.70;;;1.20;99.90;;;;;;5063031;28;20231;-71
2021/12/11 04:26:02;;;;;;;90.60;68.10;;;1.10;99.90;;;;;;5060803;28;20740;-71
2021/12/11 04:28:51;;;;;;;95.50;67.00;;;1.10;99.90;;;;;;5067090;28;20216;-72
2021/12/11 04:31:43;;;;;;;88.70;67.33;;;1.10;99.90;;;;;;5065556;28;20216;-72
2021/12/11 04:34:33;;;;;;;91.87;66.43;;;1.20;99.90;;;;;;5065286;28;22210;-72
2021/12/11 04:37:27;;;;;;;99.73;69.47;;;1.30;99.90;;;;;;5069857;28;20223;-71
2021/12/11 04:40:20;;;;;;;93.20;68.43;;;1.30;99.90;;;;;;5081827;28;20220;-71
2021/12/11 04:43:14;;;;;;;96.80;68.43;;;1.30;99.90;;;;;;5073543;28;20230;-71
2021/12/11 04:46:08;;;;;;;96.50;69.73;;;1.30;99.90;;;;;;5087156;28;20287;-72
2021/12/11 04:49:06;;;;;;;105.93;74.50;;;1.30;99.90;;;;;;5081298;28;20235;-71
2021/12/11 04:52:03;;;;;;;104.87;71.27;;;1.30;99.90;;;;;;5059234;28;20231;-72
2021/12/11 04:55:05;;;;;;;96.53;68.80;;;1.30;99.90;;;;;;5088437;28;20220;-72
2021/12/11 04:58:10;;;;;;;100.23;69.40;;;1.40;99.90;;;;;;5068622;28;20223;-72
2021/12/11 05:01:11;;;;;;;103.67;67.90;;;1.40;99.90;;;;;;5073484;28;20226;-71
2021/12/11 05:04:37;;;;;;;112.67;71.27;;;1.40;99.90;;;;;;5087246;28;20989;-71
2021/12/11 05:07:33;;;;;;;120.90;71.43;;;1.30;99.90;;;;;;5061380;28;20219;-71
2021/12/11 05:10:33;;;;;;;118.30;71.77;;;1.30;99.90;;;;;;5070089;28;20219;-71
2021/12/11 05:13:25;;;;;;;119.57;73.57;;;1.30;99.90;;;;;;5035350;28;20232;-72
2021/12/11 05:16:16;;;;;;;117.30;72.40;;;1.40;99.90;;;;;;5076930;28;20234;-69
2021/12/11 05:19:05;;;;;;;120.40;74.47;;;1.50;99.90;;;;;;5083419;28;20310;-71
2021/12/11 05:21:54;;;;;;;113.07;73.83;;;1.60;99.90;;;;;;5082753;28;20231;-70
2021/12/11 05:24:48;;;;;;;109.23;72.73;;;1.70;99.90;;;;;;5086069;28;20218;-71
2021/12/11 05:27:38;;;;;;;118.33;73.37;;;1.60;99.90;;;;;;5083743;28;20216;-71
2021/12/11 05:30:32;;;;;;;105.20;70.67;;;1.60;99.90;;;;;;5081668;28;20220;-71
2021/12/11 05:33:23;;;;;;;101.67;69.53;;;1.60;99.90;;;;;;5083896;28;20207;-71
2021/12/11 05:36:16;;;;;;;99.93;69.80;;;1.70;99.90;;;;;;5080277;28;20448;-71
2021/12/11 05:39:09;;;;;;;94.07;70.50;;;1.70;99.90;;;;;;5084585;28;20326;-71
2021/12/11 05:41:58;;;;;;;97.03;71.93;;;1.70;99.90;;;;;;5074596;28;20230;-72
2021/12/11 05:44:50;;;;;;;96.00;72.77;;;1.70;99.90;;;;;;5082107;28;20655;-72
2021/12/11 05:47:41;;;;;;;94.17;70.93;;;1.80;99.90;;;;;;5083209;28;20596;-70
2021/12/11 05:50:33;;;;;;;95.47;72.00;;;1.80;99.90;;;;;;5081685;28;20226;-74
2021/12/11 05:53:23;;;;;;;99.50;71.07;;;1.80;99.90;;;;;;5069730;28;20228;-72
2021/12/11 05:56:13;;;;;;;101.00;73.60;;;1.70;99.90;;;;;;5062368;28;20228;-73
2021/12/11 05:59:03;;;;;;;102.20;71.00;;;1.70;99.90;;;;;;5085359;28;20223;-71
2021/12/11 06:01:57;;;;;;;108.73;70.53;;;1.80;99.90;;;;;;5082413;28;20238;-71
2021/12/11 06:04:50;;;;;;;103.27;74.17;;;1.90;99.90;;;;;;5081629;28;20223;-71
2021/12/11 06:07:43;;;;;;;100.10;72.63;;;2.00;99.90;;;;;;5082113;28;20730;-71
2021/12/11 06:10:33;;;;;;;103.33;72.47;;;2.00;99.90;;;;;;5084812;28;20235;-70
2021/12/11 06:13:21;;;;;;;89.27;68.97;;;2.00;99.90;;;;;;5062222;28;20243;-71
2021/12/11 06:16:10;;;;;;;97.10;69.37;;;2.00;99.90;;;;;;5080784;28;20314;-72
2021/12/11 06:19:03;;;;;;;95.10;70.93;;;2.00;99.90;;;;;;5070161;28;20231;-71
2021/12/11 06:21:54;;;;;;;92.20;69.07;;;2.00;99.90;;;;;;5065449;28;20231;-71
2021/12/11 06:24:43;;;;;;;95.40;69.43;;;2.10;99.90;;;;;;5064641;28;20220;-71
2021/12/11 06:27:32;;;;;;;99.23;73.57;;;2.10;99.90;;;;;;5060534;28;20216;-71
2021/12/11 06:30:22;;;;;;;98.23;69.53;;;2.10;99.90;;;;;;5073457;28;20231;-72
2021/12/11 06:33:11;;;;;;;97.17;69.80;;;2.20;99.90;;;;;;5062816;28;20242;-72
2021/12/11 06:36:03;;;;;;;104.30;69.80;;;2.20;99.90;;;;;;5079157;28;20212;-70
2021/12/11 06:38:56;;;;;;;103.53;73.03;;;2.10;99.90;;;;;;5069894;28;20319;-71
2021/12/11 06:41:50;;;;;;;107.53;67.57;;;2.20;99.90;;;;;;5079227;28;20225;-71
2021/12/11 06:44:39;;;;;;;101.90;72.07;;;2.20;99.90;;;;;;5071805;28;20276;-70
2021/12/11 06:47:28;;;;;;;108.57;70.57;;;2.20;99.90;;;;;;5078544;28;20220;-71
2021/12/11 06:50:18;;;;;;;106.37;68.27;;;2.20;99.90;;;;;;5079783;28;20242;-72
2021/12/11 06:53:12;;;;;;;118.80;72.17;;;2.10;99.90;;;;;;5079434;28;20707;-71
2021/12/11 06:56:02;;;;;;;106.93;71.77;;;2.10;99.90;;;;;;5064475;28;20231;-72
2021/12/11 06:58:52;;;;;;;109.33;72.07;;;2.10;99.90;;;;;;5061244;28;20223;-72
2021/12/11 07:01:42;;;;;;;112.13;72.33;;;2.20;99.90;;;;;;5078635;28;20231;-72
2021/12/11 07:04:31;;;;;;;105.47;72.10;;;2.20;99.90;;;;;;5068795;28;20224;-71
2021/12/11 07:07:24;;;;;;;110.17;71.60;;;2.20;99.90;;;;;;5080070;28;20258;-71
2021/12/11 07:10:15;;;;;;;107.37;74.77;;;2.30;99.90;;;;;;5068299;28;20235;-71
2021/12/11 07:13:06;;;;;;;114.03;73.20;;;2.30;99.90;;;;;;5082407;28;20300;-70
2021/12/11 07:15:56;;;;;;;116.60;73.77;;;2.30;99.90;;;;;;5081235;28;20220;-70
2021/12/11 07:18:45;;;;;;;111.50;74.20;;;2.20;99.90;;;;;;5064913;28;20222;-71
2021/12/11 07:21:35;;;;;;;109.53;72.77;;;2.30;99.90;;;;;;5080011;28;20231;-72
2021/12/11 07:24:30;;;;;;;111.67;72.17;;;2.30;99.90;;;;;;5064709;28;20357;-72
2021/12/11 07:27:19;;;;;;;108.53;75.73;;;2.40;99.90;;;;;;5078069;28;20224;-72
2021/12/11 07:30:10;;;;;;;106.77;75.23;;;2.50;99.90;;;;;;5066613;28;20227;-70
2021/12/11 07:33:01;;;;;;;97.67;72.13;;;2.50;99.90;;;;;;5056965;28;20307;-70
2021/12/11 07:35:51;;;;;;;99.03;73.07;;;2.60;99.90;;;;;;5063568;28;20231;-70
2021/12/11 07:38:39;;;;;;;106.03;74.33;;;2.60;99.90;;;;;;5077560;28;20228;-70
2021/12/11 07:41:32;;;;;;;96.93;71.03;;;2.70;99.90;;;;;;5082886;28;20226;-71
2021/12/11 07:44:24;;;;;;;97.17;68.87;;;2.80;99.90;;;;;;5085906;28;20254;-70
2021/12/11 07:47:14;;;;;;;91.63;68.03;;;2.70;99.90;;;;;;5080542;28;20215;-71
2021/12/11 07:50:04;;;;;;;98.07;71.67;;;2.70;99.90;;;;;;5077641;28;20228;-73
2021/12/11 07:52:53;;;;;;;89.77;69.17;;;2.60;99.90;;;;;;5081037;28;20227;-73
2021/12/11 07:55:43;;;;;;;91.37;70.10;;;2.70;99.90;;;;;;5076069;28;20208;-72
2021/12/11 07:58:33;;;;;;;93.30;70.67;;;2.80;99.90;;;;;;5079216;28;20252;-71
2021/12/11 08:01:23;;;;;;;89.13;68.77;;;2.80;99.90;;;;;;5078486;28;20234;-71
2021/12/11 08:04:14;;;;;;;86.33;67.37;;;2.70;99.90;;;;;;5075734;28;20243;-70
2021/12/11 08:07:03;;;;;;;86.33;69.93;;;2.70;99.90;;;;;;5073486;28;20225;-71
2021/12/11 08:09:52;;;;;;;89.13;68.53;;;2.80;99.90;;;;;;5077602;28;20923;-71
2021/12/11 08:12:41;;;;;;;85.10;67.30;;;2.80;99.90;;;;;;5083578;28;20810;-71
2021/12/11 08:15:30;;;;;;;93.70;72.30;;;2.80;99.90;;;;;;5072037;28;20661;-70
2021/12/11 08:18:20;;;;;;;94.77;71.47;;;2.90;99.90;;;;;;5084443;28;20293;-73
2021/12/11 08:21:11;;;;;;;89.50;72.60;;;2.90;99.90;;;;;;5082205;28;20311;-72
2021/12/11 08:24:04;;;;;;;101.47;74.10;;;2.90;99.90;;;;;;5081797;28;20227;-70
2021/12/11 08:26:55;;;;;;;98.37;72.57;;;2.90;99.90;;;;;;5082484;28;20232;-69
2021/12/11 08:29:47;;;;;;;90.87;73.63;;;2.90;99.90;;;;;;5069346;28;20235;-71
2021/12/11 08:32:37;;;;;;;97.77;75.10;;;2.80;99.90;;;;;;5080404;28;20235;-71
2021/12/11 08:35:26;;;;;;;91.47;71.67;;;2.90;99.90;;;;;;5060732;28;20232;-70
2021/12/11 08:38:17;;;;;;;94.30;74.00;;;2.90;99.90;;;;;;5063446;28;20233;-69
2021/12/11 08:41:09;;;;;;;98.87;74.90;;;2.80;99.90;;;;;;5085034;28;20212;-70
2021/12/11 08:44:04;;;;;;;104.00;75.67;;;2.90;99.90;;;;;;5086779;28;20262;-70
2021/12/11 08:46:57;;;;;;;98.67;74.23;;;3.00;99.90;;;;;;5070886;28;20216;-69
2021/12/11 08:49:46;;;;;;;103.17;75.93;;;2.90;99.90;;;;;;5068492;28;20722;-70
2021/12/11 08:52:38;;;;;;;99.40;75.40;;;2.90;99.90;;;;;;5080627;28;20223;-70
2021/12/11 08:55:43;;;;;;;103.70;76.53;;;2.90;99.90;;;;;;5064398;28;20246;-70
2021/12/11 08:58:31;;;;;;;105.37;75.10;;;2.90;99.90;;;;;;5084185;28;20227;-69
2021/12/11 09:01:26;;;;;;;99.90;74.90;;;3.00;99.90;;;;;;5079892;28;20226;-70
2021/12/11 09:04:19;;;;;;;103.80;75.37;;;3.00;99.90;;;;;;5082987;28;20215;-70
2021/12/11 09:07:12;;;;;;;101.43;74.80;;;3.00;99.90;;;;;;5066357;28;20262;-69
2021/12/11 09:10:07;;;;;;;103.40;75.80;;;3.00;99.90;;;;;;5060276;28;20679;-70
2021/12/11 09:13:02;;;;;;;106.87;75.20;;;2.90;99.90;;;;;;5058872;28;20324;-69
2021/12/11 09:15:56;;;;;;;105.97;74.57;;;2.80;99.90;;;;;;5055988;28;20888;-69
2021/12/11 09:18:48;;;;;;;104.87;76.37;;;2.80;99.90;;;;;;5081048;28;20219;-68
2021/12/11 09:21:45;;;;;;;111.57;77.10;;;2.90;99.90;;;;;;5079292;28;20208;-69
2021/12/11 09:24:38;;;;;;;108.67;77.90;;;3.00;99.90;;;;;;5065791;28;20665;-70
2021/12/11 09:27:34;;;;;;;115.43;76.77;;;3.10;99.90;;;;;;5064266;28;20216;-69
2021/12/11 09:30:34;;;;;;;110.67;79.10;;;3.20;99.90;;;;;;5079176;28;20219;-68
2021/12/11 09:33:27;;;;;;;118.07;80.93;;;3.20;99.90;;;;;;5063318;28;20221;-70
2021/12/11 09:36:20;;;;;;;115.57;78.80;;;3.20;99.90;;;;;;5068403;28;20231;-69
2021/12/11 09:39:15;;;;;;;114.33;79.77;;;3.10;99.90;;;;;;5077091;28;20226;-70
2021/12/11 09:42:03;;;;;;;111.27;79.17;;;3.20;99.90;;;;;;5069729;28;20218;-69
2021/12/11 09:44:56;;;;;;;110.07;80.40;;;3.40;99.90;;;;;;5077187;27;20607;-69
2021/12/11 09:47:51;;;;;;;107.97;75.17;;;3.40;99.90;;;;;;5079609;28;20212;-69
2021/12/11 09:50:48;;;;;;;106.07;78.70;;;3.40;99.90;;;;;;5064862;28;20213;-69
2021/12/11 09:53:43;;;;;;;102.30;80.07;;;3.50;99.90;;;;;;5079543;28;20210;-70
2021/12/11 09:56:36;;;;;;;107.90;78.43;;;3.40;99.90;;;;;;5078650;28;20307;-67
2021/12/11 09:59:28;;;;;;;108.50;79.20;;;3.50;99.90;;;;;;5079264;28;20731;-69
2021/12/11 10:02:23;;;;;;;107.90;77.47;;;3.50;99.90;;;;;;5089925;27;20277;-69
2021/12/11 10:05:29;;;;;;;118.00;80.20;;;3.60;99.90;;;;;;5072273;28;20226;-70
2021/12/11 10:08:29;;;;;;;112.77;79.93;;;3.60;99.90;;;;;;5077868;28;20314;-69
2021/12/11 10:11:22;;;;;;;118.53;79.83;;;3.60;99.90;;;;;;5070416;28;20279;-70
2021/12/11 10:14:14;;;;;;;117.57;78.50;;;3.70;99.90;;;;;;5072570;28;20228;-68
2021/12/11 10:17:11;;;;;;;120.70;80.23;;;3.70;99.90;;;;;;5065731;28;20237;-71
2021/12/11 10:20:08;;;;;;;122.33;81.67;;;3.70;99.90;;;;;;5076827;28;20225;-70
2021/12/11 10:23:01;;;;;;;128.17;83.67;;;3.60;99.90;;;;;;5076890;28;20309;-70
2021/12/11 10:25:52;;;;;;;130.43;84.30;;;3.70;99.90;;;;;;5078944;28;20221;-70
2021/12/11 10:28:43;;;;;;;130.77;80.83;;;3.70;99.90;;;;;;5079579;28;20221;-69
2021/12/11 10:31:36;;;;;;;141.17;83.67;;;3.70;99.90;;;;;;5079455;28;20221;-70
2021/12/11 10:34:27;;;;;;;138.50;82.33;;;3.60;99.90;;;;;;5082368;28;20222;-70
2021/12/11 10:37:27;;;;;;;139.67;85.67;;;3.70;99.90;;;;;;5071129;28;20222;-69
2021/12/11 10:40:20;;;;;;;132.20;84.73;;;3.60;99.90;;;;;;5078687;28;20223;-70
2021/12/11 10:43:19;;;;;;;137.63;84.60;;;3.70;99.90;;;;;;5083107;28;20220;-70
2021/12/11 10:46:08;;;;;;;142.20;85.87;;;3.60;99.90;;;;;;5060998;28;20241;-69
2021/12/11 10:48:57;;;;;;;132.07;85.47;;;3.60;99.90;;;;;;5079426;28;20234;-68
2021/12/11 10:51:48;;;;;;;136.87;86.93;;;3.60;99.90;;;;;;5062905;28;20221;-70
2021/12/11 10:54:39;;;;;;;134.47;86.50;;;3.70;99.90;;;;;;5056333;28;20222;-70
2021/12/11 10:57:29;;;;;;;128.60;82.63;;;3.80;99.90;;;;;;5063731;28;20227;-70
2021/12/11 11:00:23;;;;;;;142.43;86.27;;;3.80;99.90;;;;;;5066739;28;20223;-70
2021/12/11 11:03:12;;;;;;;150.27;87.50;;;3.80;99.90;;;;;;5076556;28;20226;-69
2021/12/11 11:06:02;;;;;;;153.03;87.43;;;3.90;99.90;;;;;;5081836;28;20585;-69
2021/12/11 11:08:54;;;;;;;147.57;88.67;;;3.90;99.90;;;;;;5083074;28;20235;-71
2021/12/11 11:11:46;;;;;;;154.30;89.57;;;4.00;99.90;;;;;;5082584;28;20312;-70
2021/12/11 11:14:35;;;;;;;147.90;90.23;;;3.80;99.90;;;;;;5080475;28;20231;-70
2021/12/11 11:17:27;;;;;;;147.00;90.97;;;3.90;99.90;;;;;;5067253;28;20245;-70
2021/12/11 11:20:21;;;;;;;144.97;84.70;;;3.90;99.90;;;;;;5082053;28;20244;-70
2021/12/11 11:23:10;;;;;;;145.53;89.70;;;3.90;99.90;;;;;;5068207;28;20221;-70
2021/12/11 11:26:02;;;;;;;139.57;87.77;;;4.00;99.90;;;;;;5072021;28;20236;-69
2021/12/11 11:28:52;;;;;;;135.40;87.03;;;4.00;99.90;;;;;;5078165;28;20219;-70
2021/12/11 11:31:43;;;;;;;126.87;85.40;;;3.90;99.90;;;;;;5079319;28;20228;-69
2021/12/11 11:34:40;;;;;;;139.63;89.47;;;3.70;99.90;;;;;;5093426;28;20223;-69
2021/12/11 11:37:28;;;;;;;133.47;88.23;;;3.60;99.90;;;;;;5067222;28;20223;-71
2021/12/11 11:40:23;;;;;;;127.53;86.00;;;3.80;99.90;;;;;;5061080;28;20235;-71
2021/12/11 11:43:13;;;;;;;130.47;88.03;;;3.80;99.90;;;;;;5066747;28;20230;-70
2021/12/11 11:46:05;;;;;;;135.67;88.60;;;3.80;99.90;;;;;;5087197;28;20273;-68
2021/12/11 11:48:57;;;;;;;135.80;87.63;;;3.80;99.90;;;;;;5083563;28;20244;-69
2021/12/11 11:51:49;;;;;;;136.53;90.63;;;3.80;99.90;;;;;;5088248;28;20655;-71
2021/12/11 11:54:40;;;;;;;132.13;86.70;;;3.80;99.90;;;;;;5085766;28;20244;-68
2021/12/11 11:57:32;;;;;;;136.50;88.97;;;3.80;99.90;;;;;;5085458;28;20232;-70
2021/12/11 12:00:25;;;;;;;138.57;85.67;;;3.70;99.90;;;;;;5081598;28;20249;-70
2021/12/11 12:03:19;;;;;;;140.43;86.87;;;3.80;99.90;;;;;;5068753;28;20546;-69
2021/12/11 12:06:12;;;;;;;132.50;88.63;;;3.80;99.90;;;;;;5070050;28;20564;-69
2021/12/11 12:09:05;;;;;;;133.60;88.10;;;3.70;99.90;;;;;;5074108;28;20232;-69
2021/12/11 12:11:54;;;;;;;140.53;94.23;;;3.70;99.90;;;;;;5047175;28;20546;-70
2021/12/11 12:14:44;;;;;;;137.63;90.50;;;3.70;99.90;;;;;;5074360;28;20251;-69
2021/12/11 12:17:34;;;;;;;150.87;92.57;;;3.80;99.90;;;;;;5070578;28;20259;-69
2021/12/11 12:20:25;;;;;;;134.00;88.53;;;3.80;99.90;;;;;;5086245;28;20220;-69
2021/12/11 12:23:14;;;;;;;132.13;85.70;;;3.80;99.90;;;;;;5070218;28;20697;-70
2021/12/11 12:26:06;;;;;;;132.97;87.33;;;3.80;99.90;;;;;;5078187;28;20229;-68
2021/12/11 12:28:58;;;;;;;133.00;87.27;;;3.70;99.90;;;;;;5063980;28;20249;-72
2021/12/11 12:31:50;;;;;;;132.50;86.87;;;3.80;99.90;;;;;;5062998;28;20234;-71
2021/12/11 12:34:40;;;;;;;134.13;88.37;;;3.80;99.90;;;;;;5081678;28;20314;-70
2021/12/11 12:37:30;;;;;;;138.30;87.67;;;3.80;99.90;;;;;;5064156;28;20222;-74
2021/12/11 12:40:27;;;;;;;141.80;90.07;;;3.80;99.90;;;;;;5083225;28;20226;-70
2021/12/11 12:43:42;;;;;;;131.23;87.80;;;3.80;99.90;;;;;;5081332;28;20329;-70
2021/12/11 12:46:42;;;;;;;130.33;85.80;;;3.80;99.90;;;;;;5069547;28;20565;-68
2021/12/11 12:49:34;;;;;;;140.37;89.37;;;3.90;99.90;;;;;;5076039;28;20240;-70
2021/12/11 12:52:29;;;;;;;141.47;89.13;;;3.70;99.90;;;;;;5078941;28;20297;-69
2021/12/11 12:55:23;;;;;;;134.93;86.10;;;3.90;99.90;;;;;;5063614;28;20298;-70
2021/12/11 12:58:15;;;;;;;135.13;90.03;;;3.90;99.90;;;;;;5062645;28;20224;-69
2021/12/11 13:01:10;;;;;;;133.90;87.60;;;3.90;99.90;;;;;;5091716;27;20236;-69
2021/12/11 13:04:03;;;;;;;141.70;89.93;;;3.90;99.90;;;;;;5055241;28;20309;-69
2021/12/11 13:06:55;;;;;;;141.70;90.27;;;4.00;99.90;;;;;;5074000;28;20229;-69
2021/12/11 13:09:47;;;;;;;146.43;92.90;;;4.00;99.90;;;;;;5078917;28;20733;-68
2021/12/11 13:12:40;;;;;;;154.67;91.57;;;4.00;99.90;;;;;;5074393;28;20244;-68
2021/12/11 13:15:32;;;;;;;153.40;91.13;;;4.00;99.90;;;;;;5077761;28;20948;-68
2021/12/11 13:18:26;;;;;;;153.20;93.00;;;4.00;99.90;;;;;;5081491;28;20219;-68
2021/12/11 13:21:19;;;;;;;165.67;98.57;;;4.00;99.90;;;;;;5082051;28;20209;-68
2021/12/11 13:24:12;;;;;;;172.07;95.33;;;3.90;99.90;;;;;;5066969;28;20308;-66
2021/12/11 13:27:04;;;;;;;164.67;95.13;;;3.90;99.90;;;;;;5067258;28;20225;-69
2021/12/11 13:29:58;;;;;;;161.27;95.87;;;4.00;99.90;;;;;;5082988;28;20252;-68
2021/12/11 13:32:48;;;;;;;167.10;98.23;;;4.00;99.90;;;;;;5080381;28;20238;-67
2021/12/11 13:35:42;;;;;;;155.80;93.90;;;4.00;99.90;;;;;;5065409;28;20217;-68
2021/12/11 13:38:34;;;;;;;165.10;97.60;;;3.90;99.90;;;;;;5077479;28;20223;-67
2021/12/11 13:41:28;;;;;;;164.17;95.57;;;4.00;99.90;;;;;;5068989;28;20220;-67
2021/12/11 13:44:36;;;;;;;165.57;97.83;;;4.00;99.90;;;;;;5063798;28;20223;-66
2021/12/11 13:47:29;;;;;;;154.40;94.50;;;3.90;99.90;;;;;;5067680;28;20212;-67
2021/12/11 13:50:21;;;;;;;163.63;94.10;;;3.90;99.90;;;;;;5069358;28;20338;-66
2021/12/11 13:53:11;;;;;;;158.90;95.57;;;3.90;99.90;;;;;;5081442;28;20218;-68
2021/12/11 13:56:02;;;;;;;163.00;94.20;;;4.00;99.90;;;;;;5081627;28;20283;-66
2021/12/11 13:58:52;;;;;;;163.03;95.57;;;4.00;99.90;;;;;;5069915;28;20250;-68
2021/12/11 14:01:42;;;;;;;163.80;95.70;;;4.00;99.90;;;;;;5082988;28;20259;-68
2021/12/11 14:04:34;;;;;;;168.73;95.80;;;4.00;99.90;;;;;;5080909;28;20219;-66
2021/12/11 14:07:26;;;;;;;152.37;95.00;;;4.10;99.90;;;;;;5083111;28;20260;-67
2021/12/11 14:10:26;;;;;;;159.33;96.67;;;4.00;99.90;;;;;;5068085;28;20225;-66
2021/12/11 14:13:19;;;;;;;170.67;97.13;;;4.00;99.90;;;;;;5086400;28;20282;-66
2021/12/11 14:16:10;;;;;;;174.00;102.03;;;3.90;99.90;;;;;;5065652;28;20583;-67
2021/12/11 14:18:59;;;;;;;167.03;98.27;;;3.90;99.90;;;;;;5081285;28;20245;-69
2021/12/11 14:21:49;;;;;;;166.17;99.43;;;3.90;99.90;;;;;;5081124;28;20225;-69
2021/12/11 14:24:42;;;;;;;179.63;98.00;;;3.80;99.90;;;;;;5080192;28;20648;-68
2021/12/11 14:27:31;;;;;;;163.43;100.77;;;3.70;99.90;;;;;;5069910;28;20230;-69
2021/12/11 14:30:22;;;;;;;168.17;97.40;;;3.70;99.90;;;;;;5081826;28;20221;-67
2021/12/11 14:33:11;;;;;;;160.27;94.47;;;3.70;99.90;;;;;;5082484;28;20231;-67
2021/12/11 14:36:04;;;;;;;167.43;98.47;;;3.60;99.90;;;;;;5082908;28;20241;-68